sensor_id;sensor_type;location;lat;lon;timestamp;temperature;humidity
52397;DHT22;38322;53.108;6.308;2023-05-18T05:02:23;7.30;99.90
52397;DHT22;38322;53.108;6.308;2023-05-18T05:04:49;7.40;99.90
52397;DHT22;38322;53.108;6.308;2023-05-18T05:07:15;7.40;99.90
52397;DHT22;38322;53.108;6.308;2023-05-18T05:09:41;7.50;99.90
52397;DHT22;38322;53.108;6.308;2023-05-18T05:12:07;7.60;99.90
52397;DHT22;38322;53.108;6.308;2023-05-18T05:14:33;7.60;99.90
52397;DHT22;38322;53.108;6.308;2023-05-18T05:16:58;7.60;99.90
52397;DHT22;38322;53.108;6.308;2023-05-18T05:19:24;7.70;99.90
52397;DHT22;38322;53.108;6.308;2023-05-18T05:21:50;7.80;99.90
52397;DHT22;38322;53.108;6.308;2023-05-18T05:24:16;7.80;99.90
52397;DHT22;38322;53.108;6.308;2023-05-18T05:26:42;7.90;99.90
52397;DHT22;38322;53.108;6.308;2023-05-18T05:29:07;7.90;99.90
52397;DHT22;38322;53.108;6.308;2023-05-18T05:31:33;8.00;99.90
52397;DHT22;38322;53.108;6.308;2023-05-18T05:33:59;8.00;99.90
52397;DHT22;38322;53.108;6.308;2023-05-18T05:36:25;8.10;99.90
52397;DHT22;38322;53.108;6.308;2023-05-18T05:38:51;8.20;99.90
52397;DHT22;38322;53.108;6.308;2023-05-18T05:41:16;8.20;99.90
52397;DHT22;38322;53.108;6.308;2023-05-18T05:43:42;8.20;99.90
52397;DHT22;38322;53.108;6.308;2023-05-18T05:46:08;8.20;99.90
52397;DHT22;38322;53.108;6.308;2023-05-18T05:48:34;8.30;99.90
52397;DHT22;38322;53.108;6.308;2023-05-18T05:51:00;8.30;99.90
52397;DHT22;38322;53.108;6.308;2023-05-18T05:53:25;8.40;99.90
52397;DHT22;38322;53.108;6.308;2023-05-18T05:55:52;8.40;99.90
52397;DHT22;38322;53.108;6.308;2023-05-18T05:58:18;8.50;99.90
52397;DHT22;38322;53.108;6.308;2023-05-18T06:00:43;8.50;99.90
52397;DHT22;38322;53.108;6.308;2023-05-18T06:03:11;8.60;99.90
52397;DHT22;38322;53.108;6.308;2023-05-18T06:05:37;8.60;99.90
52397;DHT22;38322;53.108;6.308;2023-05-18T06:08:03;8.70;99.90
52397;DHT22;38322;53.108;6.308;2023-05-18T06:10:29;8.80;99.90
52397;DHT22;38322;53.108;6.308;2023-05-18T06:12:55;8.70;99.90
52397;DHT22;38322;53.108;6.308;2023-05-18T06:15:21;8.80;99.90
52397;DHT22;38322;53.108;6.308;2023-05-18T06:17:47;8.80;99.90
52397;DHT22;38322;53.108;6.308;2023-05-18T06:20:13;8.90;99.90
52397;DHT22;38322;53.108;6.308;2023-05-18T06:22:39;9.00;99.90
52397;DHT22;38322;53.108;6.308;2023-05-18T06:25:05;9.00;99.90
52397;DHT22;38322;53.108;6.308;2023-05-18T06:27:31;9.00;99.90
52397;DHT22;38322;53.108;6.308;2023-05-18T06:29:57;9.00;99.90
52397;DHT22;38322;53.108;6.308;2023-05-18T06:32:23;8.90;99.90
52397;DHT22;38322;53.108;6.308;2023-05-18T06:34:49;8.90;99.90
52397;DHT22;38322;53.108;6.308;2023-05-18T06:37:16;9.00;99.90
52397;DHT22;38322;53.108;6.308;2023-05-18T06:39:42;9.10;99.90
52397;DHT22;38322;53.108;6.308;2023-05-18T06:42:07;9.10;99.90
52397;DHT22;38322;53.108;6.308;2023-05-18T06:44:33;9.20;99.90
52397;DHT22;38322;53.108;6.308;2023-05-18T06:47:00;9.30;99.90
52397;DHT22;38322;53.108;6.308;2023-05-18T06:49:26;9.40;99.90
52397;DHT22;38322;53.108;6.308;2023-05-18T06:51:52;9.40;99.90
52397;DHT22;38322;53.108;6.308;2023-05-18T06:54:18;9.50;99.90
52397;DHT22;38322;53.108;6.308;2023-05-18T06:56:44;9.50;99.90
52397;DHT22;38322;53.108;6.308;2023-05-18T06:59:10;9.50;99.90
52397;DHT22;38322;53.108;6.308;2023-05-18T07:01:36;9.50;99.90
52397;DHT22;38322;53.108;6.308;2023-05-18T07:04:02;9.40;99.90
52397;DHT22;38322;53.108;6.308;2023-05-18T07:06:28;9.40;99.90
52397;DHT22;38322;53.108;6.308;2023-05-18T07:08:54;9.40;99.90
52397;DHT22;38322;53.108;6.308;2023-05-18T07:11:20;9.50;99.90
52397;DHT22;38322;53.108;6.308;2023-05-18T07:13:47;9.60;99.90
52397;DHT22;38322;53.108;6.308;2023-05-18T07:16:13;9.60;99.90
52397;DHT22;38322;53.108;6.308;2023-05-18T07:18:39;9.60;99.90
52397;DHT22;38322;53.108;6.308;2023-05-18T07:21:06;9.50;99.90
52397;DHT22;38322;53.108;6.308;2023-05-18T07:23:32;9.60;99.90
52397;DHT22;38322;53.108;6.308;2023-05-18T07:25:58;9.70;99.90
52397;DHT22;38322;53.108;6.308;2023-05-18T07:28:24;9.80;99.90
52397;DHT22;38322;53.108;6.308;2023-05-18T07:30:50;9.90;99.90
52397;DHT22;38322;53.108;6.308;2023-05-18T07:33:16;9.90;99.90
52397;DHT22;38322;53.108;6.308;2023-05-18T07:35:41;9.90;99.90
52397;DHT22;38322;53.108;6.308;2023-05-18T07:38:07;9.90;99.90
52397;DHT22;38322;53.108;6.308;2023-05-18T07:40:33;9.90;99.90
52397;DHT22;38322;53.108;6.308;2023-05-18T07:42:59;9.90;99.90
52397;DHT22;38322;53.108;6.308;2023-05-18T07:45:24;10.10;99.90
52397;DHT22;38322;53.108;6.308;2023-05-18T07:47:51;10.20;99.90
52397;DHT22;38322;53.108;6.308;2023-05-18T07:50:17;10.30;99.90
52397;DHT22;38322;53.108;6.308;2023-05-18T07:52:42;10.40;99.90
52397;DHT22;38322;53.108;6.308;2023-05-18T07:55:08;10.60;99.90
52397;DHT22;38322;53.108;6.308;2023-05-18T07:57:34;10.70;99.90
52397;DHT22;38322;53.108;6.308;2023-05-18T08:00:01;10.70;99.90
52397;DHT22;38322;53.108;6.308;2023-05-18T08:02:29;10.60;99.90
52397;DHT22;38322;53.108;6.308;2023-05-18T08:04:55;10.60;99.90
52397;DHT22;38322;53.108;6.308;2023-05-18T08:07:20;10.70;99.90
52397;DHT22;38322;53.108;6.308;2023-05-18T08:09:46;10.80;99.90
52397;DHT22;38322;53.108;6.308;2023-05-18T08:12:12;10.80;99.90
52397;DHT22;38322;53.108;6.308;2023-05-18T08:14:38;10.80;99.90
52397;DHT22;38322;53.108;6.308;2023-05-18T08:17:04;10.80;99.90
52397;DHT22;38322;53.108;6.308;2023-05-18T08:19:31;10.70;99.90
52397;DHT22;38322;53.108;6.308;2023-05-18T08:21:56;10.70;99.90
52397;DHT22;38322;53.108;6.308;2023-05-18T08:24:22;10.70;99.90
52397;DHT22;38322;53.108;6.308;2023-05-18T08:26:48;10.70;99.90
52397;DHT22;38322;53.108;6.308;2023-05-18T08:29:14;10.70;99.90
52397;DHT22;38322;53.108;6.308;2023-05-18T08:31:40;10.60;99.90
52397;DHT22;38322;53.108;6.308;2023-05-18T08:34:07;10.70;99.90
52397;DHT22;38322;53.108;6.308;2023-05-18T08:36:34;10.80;99.90
52397;DHT22;38322;53.108;6.308;2023-05-18T08:39:00;10.90;99.90
52397;DHT22;38322;53.108;6.308;2023-05-18T08:47:11;10.80;99.90
52397;DHT22;38322;53.108;6.308;2023-05-18T08:49:41;10.80;99.90
52397;DHT22;38322;53.108;6.308;2023-05-18T08:52:07;10.90;99.90
52397;DHT22;38322;53.108;6.308;2023-05-18T08:54:36;10.80;99.90
52397;DHT22;38322;53.108;6.308;2023-05-18T08:57:07;10.90;99.90
52397;DHT22;38322;53.108;6.308;2023-05-18T08:59:37;10.80;99.90
52397;DHT22;38322;53.108;6.308;2023-05-18T09:02:04;10.80;99.90
52397;DHT22;38322;53.108;6.308;2023-05-18T09:04:31;10.90;99.90
52397;DHT22;38322;53.108;6.308;2023-05-18T09:06:59;11.10;99.90
52397;DHT22;38322;53.108;6.308;2023-05-18T09:09:27;11.10;99.90
52397;DHT22;38322;53.108;6.308;2023-05-18T09:11:55;11.30;99.90
52397;DHT22;38322;53.108;6.308;2023-05-18T09:14:21;11.40;99.90
52397;DHT22;38322;53.108;6.308;2023-05-18T09:16:53;11.70;99.90
52397;DHT22;38322;53.108;6.308;2023-05-18T09:19:19;11.80;99.90
52397;DHT22;38322;53.108;6.308;2023-05-18T09:21:45;11.90;99.90
52397;DHT22;38322;53.108;6.308;2023-05-18T09:24:11;12.10;99.90
52397;DHT22;38322;53.108;6.308;2023-05-18T09:26:37;12.20;99.90
52397;DHT22;38322;53.108;6.308;2023-05-18T09:29:18;12.30;99.90
52397;DHT22;38322;53.108;6.308;2023-05-18T09:31:45;12.50;99.90
52397;DHT22;38322;53.108;6.308;2023-05-18T09:34:14;12.50;99.90
52397;DHT22;38322;53.108;6.308;2023-05-18T09:36:40;12.70;99.90
52397;DHT22;38322;53.108;6.308;2023-05-18T09:41:38;12.40;99.90
52397;DHT22;38322;53.108;6.308;2023-05-18T09:44:04;12.20;99.90
52397;DHT22;38322;53.108;6.308;2023-05-18T09:46:40;12.20;99.90
52397;DHT22;38322;53.108;6.308;2023-05-18T09:49:06;12.20;99.90
52397;DHT22;38322;53.108;6.308;2023-05-18T09:51:36;12.20;99.90
52397;DHT22;38322;53.108;6.308;2023-05-18T09:54:03;12.30;99.90
52397;DHT22;38322;53.108;6.308;2023-05-18T09:56:35;12.40;99.90
52397;DHT22;38322;53.108;6.308;2023-05-18T09:59:11;12.30;99.90
52397;DHT22;38322;53.108;6.308;2023-05-18T10:01:57;12.20;99.90
52397;DHT22;38322;53.108;6.308;2023-05-18T10:04:36;12.30;99.90
52397;DHT22;38322;53.108;6.308;2023-05-18T10:07:08;12.30;99.90
52397;DHT22;38322;53.108;6.308;2023-05-18T10:09:34;12.20;99.90
52397;DHT22;38322;53.108;6.308;2023-05-18T10:12:00;12.10;99.90
52397;DHT22;38322;53.108;6.308;2023-05-18T10:14:26;12.20;99.90
52397;DHT22;38322;53.108;6.308;2023-05-18T10:17:03;12.30;99.90
52397;DHT22;38322;53.108;6.308;2023-05-18T10:19:33;12.40;99.90
52397;DHT22;38322;53.108;6.308;2023-05-18T10:22:03;12.40;99.90
52397;DHT22;38322;53.108;6.308;2023-05-18T10:24:34;12.30;99.90
52397;DHT22;38322;53.108;6.308;2023-05-18T10:27:07;12.30;99.90
52397;DHT22;38322;53.108;6.308;2023-05-18T10:29:35;12.30;99.90
52397;DHT22;38322;53.108;6.308;2023-05-18T10:32:03;12.30;99.90
52397;DHT22;38322;53.108;6.308;2023-05-18T10:34:32;12.30;99.90
52397;DHT22;38322;53.108;6.308;2023-05-18T10:37:00;12.20;99.90
52397;DHT22;38322;53.108;6.308;2023-05-18T10:39:31;12.10;99.90
52397;DHT22;38322;53.108;6.308;2023-05-18T10:41:59;12.00;99.90
52397;DHT22;38322;53.108;6.308;2023-05-18T10:44:26;12.10;99.90
52397;DHT22;38322;53.108;6.308;2023-05-18T10:46:53;12.10;99.90
52397;DHT22;38322;53.108;6.308;2023-05-18T10:49:24;12.10;99.90
52397;DHT22;38322;53.108;6.308;2023-05-18T10:51:53;12.20;99.90
52397;DHT22;38322;53.108;6.308;2023-05-18T10:54:20;12.20;99.90
52397;DHT22;38322;53.108;6.308;2023-05-18T10:56:51;12.20;99.90
52397;DHT22;38322;53.108;6.308;2023-05-18T10:59:19;12.40;99.90
52397;DHT22;38322;53.108;6.308;2023-05-18T11:01:46;12.40;99.90
52397;DHT22;38322;53.108;6.308;2023-05-18T11:04:13;12.60;99.90
52397;DHT22;38322;53.108;6.308;2023-05-18T11:06:39;12.60;99.90
52397;DHT22;38322;53.108;6.308;2023-05-18T11:09:05;12.70;99.90
52397;DHT22;38322;53.108;6.308;2023-05-18T11:11:52;12.80;99.90
52397;DHT22;38322;53.108;6.308;2023-05-18T11:14:30;12.90;99.90
52397;DHT22;38322;53.108;6.308;2023-05-18T11:17:18;13.10;99.90
52397;DHT22;38322;53.108;6.308;2023-05-18T11:28:04;13.20;99.90
52397;DHT22;38322;53.108;6.308;2023-05-18T11:33:23;13.30;99.90
52397;DHT22;38322;53.108;6.308;2023-05-18T11:38:18;13.30;99.90
52397;DHT22;38322;53.108;6.308;2023-05-18T11:40:48;13.40;99.90
52397;DHT22;38322;53.108;6.308;2023-05-18T11:43:19;13.30;99.90
52397;DHT22;38322;53.108;6.308;2023-05-18T11:45:56;13.40;99.90
52397;DHT22;38322;53.108;6.308;2023-05-18T11:48:26;13.30;99.90
52397;DHT22;38322;53.108;6.308;2023-05-18T11:50:55;13.30;99.90
52397;DHT22;38322;53.108;6.308;2023-05-18T11:53:25;13.30;99.90
52397;DHT22;38322;53.108;6.308;2023-05-18T11:55:52;13.30;99.90
52397;DHT22;38322;53.108;6.308;2023-05-18T11:58:24;13.20;99.90
52397;DHT22;38322;53.108;6.308;2023-05-18T12:00:50;13.40;99.90
52397;DHT22;38322;53.108;6.308;2023-05-18T12:03:22;13.60;99.90
52397;DHT22;38322;53.108;6.308;2023-05-18T12:05:48;13.70;99.90
52397;DHT22;38322;53.108;6.308;2023-05-18T12:08:17;13.90;99.90
52397;DHT22;38322;53.108;6.308;2023-05-18T12:10:48;14.00;99.90
52397;DHT22;38322;53.108;6.308;2023-05-18T12:13:16;14.10;99.90
52397;DHT22;38322;53.108;6.308;2023-05-18T12:15:42;14.00;99.90
52397;DHT22;38322;53.108;6.308;2023-05-18T12:18:09;14.00;99.90
52397;DHT22;38322;53.108;6.308;2023-05-18T12:20:39;13.80;99.90
52397;DHT22;38322;53.108;6.308;2023-05-18T12:23:04;13.80;99.90
52397;DHT22;38322;53.108;6.308;2023-05-18T12:25:30;13.80;99.90
52397;DHT22;38322;53.108;6.308;2023-05-18T12:27:56;13.90;99.90
52397;DHT22;38322;53.108;6.308;2023-05-18T12:30:24;13.80;99.90
52397;DHT22;38322;53.108;6.308;2023-05-18T12:32:54;13.60;99.90
52397;DHT22;38322;53.108;6.308;2023-05-18T12:35:24;13.50;99.90
52397;DHT22;38322;53.108;6.308;2023-05-18T12:37:51;13.70;99.90
52397;DHT22;38322;53.108;6.308;2023-05-18T12:40:20;13.90;99.90
52397;DHT22;38322;53.108;6.308;2023-05-18T12:42:54;13.80;99.90
52397;DHT22;38322;53.108;6.308;2023-05-18T12:45:25;13.90;99.90
52397;DHT22;38322;53.108;6.308;2023-05-18T12:47:51;13.90;99.90
52397;DHT22;38322;53.108;6.308;2023-05-18T12:50:20;13.70;99.90
52397;DHT22;38322;53.108;6.308;2023-05-18T12:52:49;13.90;99.90
52397;DHT22;38322;53.108;6.308;2023-05-18T12:55:17;14.10;99.90
52397;DHT22;38322;53.108;6.308;2023-05-18T12:57:58;14.20;99.90
52397;DHT22;38322;53.108;6.308;2023-05-18T13:00:26;14.00;99.90
52397;DHT22;38322;53.108;6.308;2023-05-18T13:02:52;14.00;99.90
52397;DHT22;38322;53.108;6.308;2023-05-18T13:05:23;14.30;99.90
52397;DHT22;38322;53.108;6.308;2023-05-18T13:07:49;14.50;99.90
52397;DHT22;38322;53.108;6.308;2023-05-18T13:10:16;14.50;99.90
52397;DHT22;38322;53.108;6.308;2023-05-18T13:20:15;14.60;99.90
52397;DHT22;38322;53.108;6.308;2023-05-18T13:22:42;14.50;99.90
52397;DHT22;38322;53.108;6.308;2023-05-18T13:25:08;14.40;99.90
52397;DHT22;38322;53.108;6.308;2023-05-18T13:27:34;14.40;99.90
52397;DHT22;38322;53.108;6.308;2023-05-18T13:30:00;14.20;99.90
52397;DHT22;38322;53.108;6.308;2023-05-18T13:32:26;14.30;99.90
52397;DHT22;38322;53.108;6.308;2023-05-18T13:34:52;14.50;99.90
52397;DHT22;38322;53.108;6.308;2023-05-18T13:37:18;14.70;99.90
52397;DHT22;38322;53.108;6.308;2023-05-18T13:39:44;14.80;99.90
52397;DHT22;38322;53.108;6.308;2023-05-18T13:42:10;14.40;99.90
52397;DHT22;38322;53.108;6.308;2023-05-18T13:58:24;14.60;99.90
52397;DHT22;38322;53.108;6.308;2023-05-18T14:00:50;15.40;99.90
52397;DHT22;38322;53.108;6.308;2023-05-18T14:14:49;15.10;99.90
52397;DHT22;38322;53.108;6.308;2023-05-18T14:17:15;15.00;99.90
52397;DHT22;38322;53.108;6.308;2023-05-18T14:19:41;14.90;99.90
52397;DHT22;38322;53.108;6.308;2023-05-18T14:22:07;14.90;99.90
52397;DHT22;38322;53.108;6.308;2023-05-18T14:24:32;14.60;99.90
52397;DHT22;38322;53.108;6.308;2023-05-18T14:26:58;14.80;99.90
52397;DHT22;38322;53.108;6.308;2023-05-18T14:29:24;14.90;99.90
52397;DHT22;38322;53.108;6.308;2023-05-18T14:31:50;15.00;99.90
52397;DHT22;38322;53.108;6.308;2023-05-18T14:34:16;15.10;99.90
52397;DHT22;38322;53.108;6.308;2023-05-18T14:36:42;15.30;99.90
52397;DHT22;38322;53.108;6.308;2023-05-18T14:39:08;15.30;99.90
52397;DHT22;38322;53.108;6.308;2023-05-18T14:41:33;15.10;99.90
52397;DHT22;38322;53.108;6.308;2023-05-18T14:43:59;14.80;99.90
52397;DHT22;38322;53.108;6.308;2023-05-18T14:46:29;14.60;99.90
52397;DHT22;38322;53.108;6.308;2023-05-18T14:48:55;14.70;99.90
52397;DHT22;38322;53.108;6.308;2023-05-18T14:51:21;14.70;99.90
52397;DHT22;38322;53.108;6.308;2023-05-18T14:53:49;14.80;99.90
52397;DHT22;38322;53.108;6.308;2023-05-18T14:56:15;14.90;99.90
52397;DHT22;38322;53.108;6.308;2023-05-18T14:58:41;14.70;99.90
52397;DHT22;38322;53.108;6.308;2023-05-18T15:01:07;14.40;99.90
52397;DHT22;38322;53.108;6.308;2023-05-18T15:03:33;14.20;99.90
52397;DHT22;38322;53.108;6.308;2023-05-18T15:05:58;14.30;99.90
52397;DHT22;38322;53.108;6.308;2023-05-18T15:08:24;14.50;99.90
52397;DHT22;38322;53.108;6.308;2023-05-18T15:10:50;14.50;99.90
52397;DHT22;38322;53.108;6.308;2023-05-18T15:13:16;14.50;99.90
52397;DHT22;38322;53.108;6.308;2023-05-18T15:15:43;14.50;99.90
52397;DHT22;38322;53.108;6.308;2023-05-18T15:18:09;14.40;99.90
52397;DHT22;38322;53.108;6.308;2023-05-18T15:20:34;14.50;99.90
52397;DHT22;38322;53.108;6.308;2023-05-18T15:23:00;14.60;99.90
52397;DHT22;38322;53.108;6.308;2023-05-18T15:25:26;14.40;99.90
52397;DHT22;38322;53.108;6.308;2023-05-18T15:27:53;14.20;99.90
52397;DHT22;38322;53.108;6.308;2023-05-18T15:30:19;14.10;99.90
52397;DHT22;38322;53.108;6.308;2023-05-18T15:32:45;14.20;99.90
52397;DHT22;38322;53.108;6.308;2023-05-18T15:35:10;14.50;99.90
52397;DHT22;38322;53.108;6.308;2023-05-18T15:37:36;14.70;99.90
52397;DHT22;38322;53.108;6.308;2023-05-18T15:40:02;14.70;99.90
52397;DHT22;38322;53.108;6.308;2023-05-18T15:42:28;14.30;99.90
52397;DHT22;38322;53.108;6.308;2023-05-18T15:44:54;14.10;99.90
52397;DHT22;38322;53.108;6.308;2023-05-18T15:47:20;14.50;99.90
52397;DHT22;38322;53.108;6.308;2023-05-18T15:49:46;14.90;99.90
52397;DHT22;38322;53.108;6.308;2023-05-18T15:52:11;15.00;99.90
52397;DHT22;38322;53.108;6.308;2023-05-18T15:54:37;15.20;99.90
52397;DHT22;38322;53.108;6.308;2023-05-18T15:57:04;15.30;99.90
52397;DHT22;38322;53.108;6.308;2023-05-18T15:59:30;15.30;99.90
52397;DHT22;38322;53.108;6.308;2023-05-18T16:01:55;15.30;99.90
52397;DHT22;38322;53.108;6.308;2023-05-18T16:04:21;15.10;99.90
52397;DHT22;38322;53.108;6.308;2023-05-18T16:06:47;15.20;99.90
52397;DHT22;38322;53.108;6.308;2023-05-18T16:09:13;15.30;99.90
52397;DHT22;38322;53.108;6.308;2023-05-18T16:11:39;15.40;99.90
52397;DHT22;38322;53.108;6.308;2023-05-18T16:14:04;15.30;99.90
52397;DHT22;38322;53.108;6.308;2023-05-18T16:16:30;15.40;99.90
52397;DHT22;38322;53.108;6.308;2023-05-18T16:18:56;15.30;99.90
52397;DHT22;38322;53.108;6.308;2023-05-18T16:21:22;15.40;99.90
52397;DHT22;38322;53.108;6.308;2023-05-18T16:23:48;15.40;99.90
52397;DHT22;38322;53.108;6.308;2023-05-18T16:26:14;15.00;99.90
52397;DHT22;38322;53.108;6.308;2023-05-18T16:28:40;14.60;99.90
52397;DHT22;38322;53.108;6.308;2023-05-18T16:31:06;14.50;99.90
52397;DHT22;38322;53.108;6.308;2023-05-18T16:33:36;14.80;99.90
52397;DHT22;38322;53.108;6.308;2023-05-18T16:36:02;15.00;99.90
52397;DHT22;38322;53.108;6.308;2023-05-18T16:38:28;15.10;99.90
52397;DHT22;38322;53.108;6.308;2023-05-18T16:40:54;14.90;99.90
52397;DHT22;38322;53.108;6.308;2023-05-18T16:43:19;15.00;99.90
52397;DHT22;38322;53.108;6.308;2023-05-18T16:45:48;14.80;99.90
52397;DHT22;38322;53.108;6.308;2023-05-18T16:48:14;14.80;99.90
52397;DHT22;38322;53.108;6.308;2023-05-18T16:50:40;14.80;99.90
52397;DHT22;38322;53.108;6.308;2023-05-18T16:53:06;14.80;99.90
52397;DHT22;38322;53.108;6.308;2023-05-18T16:55:32;15.00;99.90
52397;DHT22;38322;53.108;6.308;2023-05-18T16:57:58;15.00;99.90
52397;DHT22;38322;53.108;6.308;2023-05-18T17:00:23;14.90;99.90
52397;DHT22;38322;53.108;6.308;2023-05-18T17:02:49;14.80;99.90
52397;DHT22;38322;53.108;6.308;2023-05-18T17:05:17;14.60;99.90
52397;DHT22;38322;53.108;6.308;2023-05-18T17:07:46;14.70;99.90
52397;DHT22;38322;53.108;6.308;2023-05-18T17:10:12;14.50;99.90
52397;DHT22;38322;53.108;6.308;2023-05-18T17:12:38;14.50;99.90
52397;DHT22;38322;53.108;6.308;2023-05-18T17:15:04;14.40;99.90
52397;DHT22;38322;53.108;6.308;2023-05-18T17:17:30;14.20;99.90
52397;DHT22;38322;53.108;6.308;2023-05-18T17:19:56;13.90;99.90
52397;DHT22;38322;53.108;6.308;2023-05-18T17:22:22;13.60;99.90
52397;DHT22;38322;53.108;6.308;2023-05-18T17:24:47;13.20;99.90
52397;DHT22;38322;53.108;6.308;2023-05-18T17:27:13;13.00;99.90
52397;DHT22;38322;53.108;6.308;2023-05-18T17:29:39;12.70;99.90
52397;DHT22;38322;53.108;6.308;2023-05-18T17:32:05;12.50;99.90
52397;DHT22;38322;53.108;6.308;2023-05-18T17:34:31;12.40;99.90
52397;DHT22;38322;53.108;6.308;2023-05-18T17:36:57;12.30;99.90
52397;DHT22;38322;53.108;6.308;2023-05-18T17:39:23;12.10;99.90
52397;DHT22;38322;53.108;6.308;2023-05-18T17:41:49;12.00;99.90
52397;DHT22;38322;53.108;6.308;2023-05-18T17:46:45;11.80;99.90
52397;DHT22;38322;53.108;6.308;2023-05-18T17:49:13;11.60;99.90
52397;DHT22;38322;53.108;6.308;2023-05-18T17:51:40;11.60;99.90
52397;DHT22;38322;53.108;6.308;2023-05-18T17:54:06;11.50;99.90
52397;DHT22;38322;53.108;6.308;2023-05-18T17:56:35;11.30;99.90
52397;DHT22;38322;53.108;6.308;2023-05-18T17:59:02;11.20;99.90
52397;DHT22;38322;53.108;6.308;2023-05-18T18:01:28;11.10;99.90
52397;DHT22;38322;53.108;6.308;2023-05-18T18:03:55;11.00;99.90
52397;DHT22;38322;53.108;6.308;2023-05-18T18:06:21;10.90;99.90
52397;DHT22;38322;53.108;6.308;2023-05-18T18:08:48;10.90;99.90
52397;DHT22;38322;53.108;6.308;2023-05-18T18:11:14;10.90;99.90
52397;DHT22;38322;53.108;6.308;2023-05-18T18:13:40;10.80;99.90
52397;DHT22;38322;53.108;6.308;2023-05-18T18:16:06;10.70;99.90
52397;DHT22;38322;53.108;6.308;2023-05-18T18:18:32;10.70;99.90
52397;DHT22;38322;53.108;6.308;2023-05-18T18:21:01;10.70;99.90
52397;DHT22;38322;53.108;6.308;2023-05-18T18:23:28;10.70;99.90
52397;DHT22;38322;53.108;6.308;2023-05-18T18:25:54;10.60;99.90
52397;DHT22;38322;53.108;6.308;2023-05-18T18:28:20;10.60;99.90
52397;DHT22;38322;53.108;6.308;2023-05-18T18:30:46;10.50;99.90
52397;DHT22;38322;53.108;6.308;2023-05-18T18:33:12;10.40;99.90
52397;DHT22;38322;53.108;6.308;2023-05-18T18:35:39;10.40;99.90
52397;DHT22;38322;53.108;6.308;2023-05-18T18:38:05;10.40;99.90
52397;DHT22;38322;53.108;6.308;2023-05-18T18:40:31;10.40;99.90
52397;DHT22;38322;53.108;6.308;2023-05-18T18:42:58;10.30;99.90
52397;DHT22;38322;53.108;6.308;2023-05-18T18:45:24;10.30;99.90
52397;DHT22;38322;53.108;6.308;2023-05-18T18:47:54;10.20;99.90
52397;DHT22;38322;53.108;6.308;2023-05-18T18:50:20;10.10;99.90
52397;DHT22;38322;53.108;6.308;2023-05-18T18:52:46;10.10;99.90
52397;DHT22;38322;53.108;6.308;2023-05-18T18:55:12;10.10;99.90
52397;DHT22;38322;53.108;6.308;2023-05-18T18:57:38;10.00;99.90
52397;DHT22;38322;53.108;6.308;2023-05-18T19:00:04;10.00;99.90
52397;DHT22;38322;53.108;6.308;2023-05-18T19:02:36;9.90;99.90
52397;DHT22;38322;53.108;6.308;2023-05-18T19:05:05;9.90;99.90
52397;DHT22;38322;53.108;6.308;2023-05-18T19:07:32;9.90;99.90
52397;DHT22;38322;53.108;6.308;2023-05-18T19:09:58;9.80;99.90
52397;DHT22;38322;53.108;6.308;2023-05-18T19:12:24;9.80;99.90
52397;DHT22;38322;53.108;6.308;2023-05-18T19:14:49;9.70;99.90
52397;DHT22;38322;53.108;6.308;2023-05-18T19:17:15;9.70;99.90
52397;DHT22;38322;53.108;6.308;2023-05-18T19:19:41;9.60;99.90
52397;DHT22;38322;53.108;6.308;2023-05-18T19:22:08;9.50;99.90
52397;DHT22;38322;53.108;6.308;2023-05-18T19:24:34;9.50;99.90
52397;DHT22;38322;53.108;6.308;2023-05-18T19:27:00;9.40;99.90
52397;DHT22;38322;53.108;6.308;2023-05-18T19:29:26;9.40;99.90
52397;DHT22;38322;53.108;6.308;2023-05-18T19:31:53;9.40;99.90
52397;DHT22;38322;53.108;6.308;2023-05-18T19:34:20;9.30;99.90
52397;DHT22;38322;53.108;6.308;2023-05-18T19:36:46;9.30;99.90
52397;DHT22;38322;53.108;6.308;2023-05-18T19:39:14;9.20;99.90
52397;DHT22;38322;53.108;6.308;2023-05-18T19:41:41;9.20;99.90
52397;DHT22;38322;53.108;6.308;2023-05-18T19:44:07;9.10;99.90
52397;DHT22;38322;53.108;6.308;2023-05-18T19:46:34;9.10;99.90
52397;DHT22;38322;53.108;6.308;2023-05-18T19:49:01;9.00;99.90
52397;DHT22;38322;53.108;6.308;2023-05-18T19:51:27;9.00;99.90
52397;DHT22;38322;53.108;6.308;2023-05-18T19:53:54;9.00;99.90
52397;DHT22;38322;53.108;6.308;2023-05-18T19:56:20;8.90;99.90
52397;DHT22;38322;53.108;6.308;2023-05-18T19:58:47;8.90;99.90
